sensor_id;sensor_type;location;lat;lon;timestamp;temperature;humidity
63976;DHT22;50167;47.958;21.780;2023-04-25T00:00:29;18.98;62.15
63976;DHT22;50167;47.958;21.780;2023-04-25T00:02:55;19.31;60.89
63976;DHT22;50167;47.958;21.780;2023-04-25T00:05:26;19.62;60.09
63976;DHT22;50167;47.958;21.780;2023-04-25T00:07:53;19.84;59.15
63976;DHT22;50167;47.958;21.780;2023-04-25T00:10:20;19.35;58.04
63976;DHT22;50167;47.958;21.780;2023-04-25T00:12:46;18.36;59.96
63976;DHT22;50167;47.958;21.780;2023-04-25T00:15:18;17.54;62.02
63976;DHT22;50167;47.958;21.780;2023-04-25T00:17:41;17.50;64.65
63976;DHT22;50167;47.958;21.780;2023-04-25T00:20:09;18.21;64.17
63976;DHT22;50167;47.958;21.780;2023-04-25T00:22:36;18.69;62.98
63976;DHT22;50167;47.958;21.780;2023-04-25T00:25:07;19.05;61.74
63976;DHT22;50167;47.958;21.780;2023-04-25T00:27:33;19.35;60.54
63976;DHT22;50167;47.958;21.780;2023-04-25T00:30:00;19.56;60.19
63976;DHT22;50167;47.958;21.780;2023-04-25T00:32:26;19.34;58.72
63976;DHT22;50167;47.958;21.780;2023-04-25T00:34:52;18.28;60.57
63976;DHT22;50167;47.958;21.780;2023-04-25T00:37:18;17.42;63.26
63976;DHT22;50167;47.958;21.780;2023-04-25T00:39:45;17.40;66.05
63976;DHT22;50167;47.958;21.780;2023-04-25T00:42:12;18.08;65.62
63976;DHT22;50167;47.958;21.780;2023-04-25T00:44:39;18.69;63.94
63976;DHT22;50167;47.958;21.780;2023-04-25T00:47:06;19.05;62.91
63976;DHT22;50167;47.958;21.780;2023-04-25T00:49:32;19.28;61.84
63976;DHT22;50167;47.958;21.780;2023-04-25T00:51:59;19.48;61.10
63976;DHT22;50167;47.958;21.780;2023-04-25T00:54:25;19.65;60.56
63976;DHT22;50167;47.958;21.780;2023-04-25T00:56:52;19.62;60.42
63976;DHT22;50167;47.958;21.780;2023-04-25T00:59:19;19.73;60.17
63976;DHT22;50167;47.958;21.780;2023-04-25T01:01:46;19.83;59.93
63976;DHT22;50167;47.958;21.780;2023-04-25T01:04:13;19.97;59.40
63976;DHT22;50167;47.958;21.780;2023-04-25T01:06:40;19.41;58.90
63976;DHT22;50167;47.958;21.780;2023-04-25T01:09:07;18.36;60.77
63976;DHT22;50167;47.958;21.780;2023-04-25T01:11:33;17.49;63.14
63976;DHT22;50167;47.958;21.780;2023-04-25T01:14:00;17.57;65.95
63976;DHT22;50167;47.958;21.780;2023-04-25T01:16:27;18.49;65.06
63976;DHT22;50167;47.958;21.780;2023-04-25T01:18:54;19.17;63.04
63976;DHT22;50167;47.958;21.780;2023-04-25T01:21:21;19.49;61.45
63976;DHT22;50167;47.958;21.780;2023-04-25T01:23:47;19.62;60.78
63976;DHT22;50167;47.958;21.780;2023-04-25T01:26:14;19.80;60.46
63976;DHT22;50167;47.958;21.780;2023-04-25T01:28:41;19.96;59.72
63976;DHT22;50167;47.958;21.780;2023-04-25T01:31:07;19.99;59.23
63976;DHT22;50167;47.958;21.780;2023-04-25T01:33:33;19.44;58.94
63976;DHT22;50167;47.958;21.780;2023-04-25T01:36:00;18.33;61.12
63976;DHT22;50167;47.958;21.780;2023-04-25T01:38:26;17.42;63.31
63976;DHT22;50167;47.958;21.780;2023-04-25T01:40:53;17.53;65.68
63976;DHT22;50167;47.958;21.780;2023-04-25T01:43:20;18.29;65.18
63976;DHT22;50167;47.958;21.780;2023-04-25T01:45:49;18.81;63.82
63976;DHT22;50167;47.958;21.780;2023-04-25T01:48:15;19.15;62.53
63976;DHT22;50167;47.958;21.780;2023-04-25T01:50:42;19.38;61.52
63976;DHT22;50167;47.958;21.780;2023-04-25T01:53:09;19.52;61.18
63976;DHT22;50167;47.958;21.780;2023-04-25T01:55:37;19.56;60.50
63976;DHT22;50167;47.958;21.780;2023-04-25T01:58:04;19.60;60.56
63976;DHT22;50167;47.958;21.780;2023-04-25T02:00:32;19.70;60.37
63976;DHT22;50167;47.958;21.780;2023-04-25T02:02:58;19.76;60.08
63976;DHT22;50167;47.958;21.780;2023-04-25T02:05:25;19.84;59.58
63976;DHT22;50167;47.958;21.780;2023-04-25T02:07:51;19.87;59.32
63976;DHT22;50167;47.958;21.780;2023-04-25T02:10:17;19.31;58.96
63976;DHT22;50167;47.958;21.780;2023-04-25T02:12:43;18.23;61.04
63976;DHT22;50167;47.958;21.780;2023-04-25T02:15:10;17.36;63.43
63976;DHT22;50167;47.958;21.780;2023-04-25T02:17:36;17.16;65.71
63976;DHT22;50167;47.958;21.780;2023-04-25T02:20:04;17.69;66.58
63976;DHT22;50167;47.958;21.780;2023-04-25T02:22:31;18.36;65.12
63976;DHT22;50167;47.958;21.780;2023-04-25T02:24:57;18.70;63.61
63976;DHT22;50167;47.958;21.780;2023-04-25T02:27:24;18.94;63.13
63976;DHT22;50167;47.958;21.780;2023-04-25T02:29:52;19.18;62.17
63976;DHT22;50167;47.958;21.780;2023-04-25T02:32:18;19.38;61.54
63976;DHT22;50167;47.958;21.780;2023-04-25T02:34:44;19.49;60.86
63976;DHT22;50167;47.958;21.780;2023-04-25T02:37:10;19.52;60.49
63976;DHT22;50167;47.958;21.780;2023-04-25T02:39:37;19.60;60.50
63976;DHT22;50167;47.958;21.780;2023-04-25T02:42:03;19.76;60.00
63976;DHT22;50167;47.958;21.780;2023-04-25T02:44:29;19.77;59.79
63976;DHT22;50167;47.958;21.780;2023-04-25T02:46:56;19.73;59.45
63976;DHT22;50167;47.958;21.780;2023-04-25T02:49:22;19.18;59.16
63976;DHT22;50167;47.958;21.780;2023-04-25T02:51:48;18.18;61.19
63976;DHT22;50167;47.958;21.780;2023-04-25T02:54:14;17.33;63.48
63976;DHT22;50167;47.958;21.780;2023-04-25T02:56:40;17.33;65.96
63976;DHT22;50167;47.958;21.780;2023-04-25T02:59:06;17.90;66.05
63976;DHT22;50167;47.958;21.780;2023-04-25T03:01:32;18.36;64.55
63976;DHT22;50167;47.958;21.780;2023-04-25T03:03:59;18.67;63.66
63976;DHT22;50167;47.958;21.780;2023-04-25T03:06:25;18.90;62.84
63976;DHT22;50167;47.958;21.780;2023-04-25T03:08:51;19.01;62.44
63976;DHT22;50167;47.958;21.780;2023-04-25T03:11:17;19.08;61.67
63976;DHT22;50167;47.958;21.780;2023-04-25T03:13:45;19.24;61.81
63976;DHT22;50167;47.958;21.780;2023-04-25T03:16:12;19.41;60.98
63976;DHT22;50167;47.958;21.780;2023-04-25T03:18:38;19.53;60.66
63976;DHT22;50167;47.958;21.780;2023-04-25T03:21:04;19.66;60.14
63976;DHT22;50167;47.958;21.780;2023-04-25T03:23:30;19.72;59.81
63976;DHT22;50167;47.958;21.780;2023-04-25T03:25:57;19.67;59.65
63976;DHT22;50167;47.958;21.780;2023-04-25T03:28:23;19.69;59.66
63976;DHT22;50167;47.958;21.780;2023-04-25T03:30:49;19.31;59.19
63976;DHT22;50167;47.958;21.780;2023-04-25T03:33:15;18.29;60.79
63976;DHT22;50167;47.958;21.780;2023-04-25T03:35:41;17.42;63.23
63976;DHT22;50167;47.958;21.780;2023-04-25T03:38:08;17.43;66.07
63976;DHT22;50167;47.958;21.780;2023-04-25T03:40:34;17.87;65.59
63976;DHT22;50167;47.958;21.780;2023-04-25T03:43:00;18.28;64.59
63976;DHT22;50167;47.958;21.780;2023-04-25T03:45:27;18.67;63.78
63976;DHT22;50167;47.958;21.780;2023-04-25T03:47:53;19.00;62.56
63976;DHT22;50167;47.958;21.780;2023-04-25T03:50:19;19.14;62.19
63976;DHT22;50167;47.958;21.780;2023-04-25T03:52:45;19.32;61.57
63976;DHT22;50167;47.958;21.780;2023-04-25T03:55:11;19.46;61.02
63976;DHT22;50167;47.958;21.780;2023-04-25T03:57:38;19.48;60.45
63976;DHT22;50167;47.958;21.780;2023-04-25T04:00:06;19.49;60.75
63976;DHT22;50167;47.958;21.780;2023-04-25T04:02:32;19.59;60.39
63976;DHT22;50167;47.958;21.780;2023-04-25T04:05:00;19.70;60.25
63976;DHT22;50167;47.958;21.780;2023-04-25T04:07:27;19.84;59.74
63976;DHT22;50167;47.958;21.780;2023-04-25T04:09:53;19.97;59.44
63976;DHT22;50167;47.958;21.780;2023-04-25T04:12:19;19.49;58.84
63976;DHT22;50167;47.958;21.780;2023-04-25T04:14:45;18.52;60.79
63976;DHT22;50167;47.958;21.780;2023-04-25T04:17:11;17.70;63.05
63976;DHT22;50167;47.958;21.780;2023-04-25T04:19:37;17.90;65.64
63976;DHT22;50167;47.958;21.780;2023-04-25T04:22:04;18.59;64.32
63976;DHT22;50167;47.958;21.780;2023-04-25T04:24:30;18.94;63.19
63976;DHT22;50167;47.958;21.780;2023-04-25T04:26:56;19.28;62.39
63976;DHT22;50167;47.958;21.780;2023-04-25T04:29:22;19.41;61.61
63976;DHT22;50167;47.958;21.780;2023-04-25T04:31:50;19.73;61.10
63976;DHT22;50167;47.958;21.780;2023-04-25T04:34:19;19.90;60.30
63976;DHT22;50167;47.958;21.780;2023-04-25T04:36:46;19.97;59.80
63976;DHT22;50167;47.958;21.780;2023-04-25T04:39:13;20.13;59.66
63976;DHT22;50167;47.958;21.780;2023-04-25T04:41:39;19.83;58.76
63976;DHT22;50167;47.958;21.780;2023-04-25T04:44:06;18.88;60.41
63976;DHT22;50167;47.958;21.780;2023-04-25T04:46:33;18.08;62.46
63976;DHT22;50167;47.958;21.780;2023-04-25T04:49:01;18.18;65.29
63976;DHT22;50167;47.958;21.780;2023-04-25T04:51:28;18.88;63.73
63976;DHT22;50167;47.958;21.780;2023-04-25T04:53:55;19.17;62.78
63976;DHT22;50167;47.958;21.780;2023-04-25T04:56:24;19.57;62.30
63976;DHT22;50167;47.958;21.780;2023-04-25T04:58:51;20.00;61.32
63976;DHT22;50167;47.958;21.780;2023-04-25T05:01:18;20.15;60.21
63976;DHT22;50167;47.958;21.780;2023-04-25T05:03:44;20.23;60.16
63976;DHT22;50167;47.958;21.780;2023-04-25T05:06:10;20.51;59.69
63976;DHT22;50167;47.958;21.780;2023-04-25T05:08:36;20.78;58.94
63976;DHT22;50167;47.958;21.780;2023-04-25T05:11:03;20.38;57.92
63976;DHT22;50167;47.958;21.780;2023-04-25T05:13:29;19.38;59.81
63976;DHT22;50167;47.958;21.780;2023-04-25T05:15:56;18.56;61.93
63976;DHT22;50167;47.958;21.780;2023-04-25T05:18:22;17.97;63.64
63976;DHT22;50167;47.958;21.780;2023-04-25T05:20:48;18.43;66.36
63976;DHT22;50167;47.958;21.780;2023-04-25T05:23:14;19.14;63.67
63976;DHT22;50167;47.958;21.780;2023-04-25T05:25:41;19.42;62.68
63976;DHT22;50167;47.958;21.780;2023-04-25T05:28:07;19.91;61.21
63976;DHT22;50167;47.958;21.780;2023-04-25T05:30:34;20.13;60.70
63976;DHT22;50167;47.958;21.780;2023-04-25T05:33:00;20.18;60.52
63976;DHT22;50167;47.958;21.780;2023-04-25T05:35:27;20.34;59.29
63976;DHT22;50167;47.958;21.780;2023-04-25T05:37:53;19.96;58.66
63976;DHT22;50167;47.958;21.780;2023-04-25T05:40:19;18.97;60.26
63976;DHT22;50167;47.958;21.780;2023-04-25T05:42:45;18.12;62.16
63976;DHT22;50167;47.958;21.780;2023-04-25T05:45:12;18.22;64.67
63976;DHT22;50167;47.958;21.780;2023-04-25T05:47:38;18.84;63.67
63976;DHT22;50167;47.958;21.780;2023-04-25T05:50:07;19.36;62.97
63976;DHT22;50167;47.958;21.780;2023-04-25T05:52:34;19.77;61.58
63976;DHT22;50167;47.958;21.780;2023-04-25T05:55:00;20.11;60.98
63976;DHT22;50167;47.958;21.780;2023-04-25T05:57:27;20.55;59.72
63976;DHT22;50167;47.958;21.780;2023-04-25T05:59:54;20.87;58.71
63976;DHT22;50167;47.958;21.780;2023-04-25T06:02:21;20.46;57.76
63976;DHT22;50167;47.958;21.780;2023-04-25T06:04:50;19.50;59.88
63976;DHT22;50167;47.958;21.780;2023-04-25T06:07:18;18.74;61.43
63976;DHT22;50167;47.958;21.780;2023-04-25T06:09:44;18.12;63.32
63976;DHT22;50167;47.958;21.780;2023-04-25T06:12:10;18.58;64.80
63976;DHT22;50167;47.958;21.780;2023-04-25T06:14:37;19.53;62.55
63976;DHT22;50167;47.958;21.780;2023-04-25T06:17:03;20.03;60.97
63976;DHT22;50167;47.958;21.780;2023-04-25T06:19:34;20.28;60.50
63976;DHT22;50167;47.958;21.780;2023-04-25T06:22:01;20.59;59.29
63976;DHT22;50167;47.958;21.780;2023-04-25T06:24:28;20.35;58.45
63976;DHT22;50167;47.958;21.780;2023-04-25T06:26:54;19.62;60.11
63976;DHT22;50167;47.958;21.780;2023-04-25T06:29:21;18.98;61.95
63976;DHT22;50167;47.958;21.780;2023-04-25T06:31:47;18.55;63.56
63976;DHT22;50167;47.958;21.780;2023-04-25T06:34:13;19.05;64.75
63976;DHT22;50167;47.958;21.780;2023-04-25T06:36:39;20.04;61.88
63976;DHT22;50167;47.958;21.780;2023-04-25T06:39:07;20.43;60.82
63976;DHT22;50167;47.958;21.780;2023-04-25T06:41:34;20.93;59.06
63976;DHT22;50167;47.958;21.780;2023-04-25T06:44:01;20.75;57.83
63976;DHT22;50167;47.958;21.780;2023-04-25T06:46:27;19.88;59.53
63976;DHT22;50167;47.958;21.780;2023-04-25T06:48:53;19.27;61.76
63976;DHT22;50167;47.958;21.780;2023-04-25T06:51:20;18.83;62.68
63976;DHT22;50167;47.958;21.780;2023-04-25T06:53:46;19.17;63.55
63976;DHT22;50167;47.958;21.780;2023-04-25T06:56:12;20.08;62.13
63976;DHT22;50167;47.958;21.780;2023-04-25T06:58:38;20.79;59.68
63976;DHT22;50167;47.958;21.780;2023-04-25T07:01:05;21.22;58.30
63976;DHT22;50167;47.958;21.780;2023-04-25T07:03:31;20.90;57.46
63976;DHT22;50167;47.958;21.780;2023-04-25T07:05:57;20.13;58.72
63976;DHT22;50167;47.958;21.780;2023-04-25T07:08:23;19.42;61.37
63976;DHT22;50167;47.958;21.780;2023-04-25T07:10:49;18.88;62.45
63976;DHT22;50167;47.958;21.780;2023-04-25T07:13:16;19.34;63.58
63976;DHT22;50167;47.958;21.780;2023-04-25T07:15:42;20.51;61.27
63976;DHT22;50167;47.958;21.780;2023-04-25T07:18:09;21.09;58.93
63976;DHT22;50167;47.958;21.780;2023-04-25T07:20:36;20.86;57.70
63976;DHT22;50167;47.958;21.780;2023-04-25T07:23:02;20.13;59.68
63976;DHT22;50167;47.958;21.780;2023-04-25T07:25:28;19.46;61.11
63976;DHT22;50167;47.958;21.780;2023-04-25T07:27:56;19.07;61.80
63976;DHT22;50167;47.958;21.780;2023-04-25T07:30:22;18.76;63.41
63976;DHT22;50167;47.958;21.780;2023-04-25T07:32:50;19.18;63.63
63976;DHT22;50167;47.958;21.780;2023-04-25T07:35:17;20.15;60.93
63976;DHT22;50167;47.958;21.780;2023-04-25T07:37:44;20.59;59.23
63976;DHT22;50167;47.958;21.780;2023-04-25T07:40:11;20.39;58.58
63976;DHT22;50167;47.958;21.780;2023-04-25T07:42:37;19.84;59.98
63976;DHT22;50167;47.958;21.780;2023-04-25T07:45:04;19.39;60.75
63976;DHT22;50167;47.958;21.780;2023-04-25T07:47:31;19.02;62.31
63976;DHT22;50167;47.958;21.780;2023-04-25T07:49:57;19.50;63.12
63976;DHT22;50167;47.958;21.780;2023-04-25T07:52:24;20.38;60.16
63976;DHT22;50167;47.958;21.780;2023-04-25T07:54:50;20.80;58.07
63976;DHT22;50167;47.958;21.780;2023-04-25T07:57:16;20.55;58.43
63976;DHT22;50167;47.958;21.780;2023-04-25T07:59:44;19.94;58.57
63976;DHT22;50167;47.958;21.780;2023-04-25T08:02:10;19.41;60.05
63976;DHT22;50167;47.958;21.780;2023-04-25T08:04:36;19.14;60.78
63976;DHT22;50167;47.958;21.780;2023-04-25T08:07:03;18.95;60.96
63976;DHT22;50167;47.958;21.780;2023-04-25T08:09:29;18.76;61.04
63976;DHT22;50167;47.958;21.780;2023-04-25T08:11:57;18.64;62.03
63976;DHT22;50167;47.958;21.780;2023-04-25T08:14:23;18.58;61.97
63976;DHT22;50167;47.958;21.780;2023-04-25T08:16:49;18.63;61.70
63976;DHT22;50167;47.958;21.780;2023-04-25T08:19:15;19.80;61.35
63976;DHT22;50167;47.958;21.780;2023-04-25T08:21:42;20.66;57.88
63976;DHT22;50167;47.958;21.780;2023-04-25T08:24:08;20.49;57.22
63976;DHT22;50167;47.958;21.780;2023-04-25T08:26:34;19.83;58.22
63976;DHT22;50167;47.958;21.780;2023-04-25T08:29:02;19.27;58.98
63976;DHT22;50167;47.958;21.780;2023-04-25T08:31:29;18.80;60.44
63976;DHT22;50167;47.958;21.780;2023-04-25T08:33:55;18.32;61.98
63976;DHT22;50167;47.958;21.780;2023-04-25T08:36:21;17.88;63.33
63976;DHT22;50167;47.958;21.780;2023-04-25T08:38:48;18.33;64.89
63976;DHT22;50167;47.958;21.780;2023-04-25T08:41:15;19.18;63.25
63976;DHT22;50167;47.958;21.780;2023-04-25T08:43:43;19.94;60.69
63976;DHT22;50167;47.958;21.780;2023-04-25T08:46:12;20.25;59.63
63976;DHT22;50167;47.958;21.780;2023-04-25T08:48:40;20.46;59.33
63976;DHT22;50167;47.958;21.780;2023-04-25T08:51:10;20.14;59.37
63976;DHT22;50167;47.958;21.780;2023-04-25T08:53:40;19.04;61.10
63976;DHT22;50167;47.958;21.780;2023-04-25T08:56:09;18.14;63.54
63976;DHT22;50167;47.958;21.780;2023-04-25T08:58:39;18.29;66.89
63976;DHT22;50167;47.958;21.780;2023-04-25T09:01:05;19.25;65.71
63976;DHT22;50167;47.958;21.780;2023-04-25T09:03:32;19.80;62.98
63976;DHT22;50167;47.958;21.780;2023-04-25T09:05:59;20.14;61.97
63976;DHT22;50167;47.958;21.780;2023-04-25T09:08:26;20.34;60.67
63976;DHT22;50167;47.958;21.780;2023-04-25T09:10:52;20.55;60.88
63976;DHT22;50167;47.958;21.780;2023-04-25T09:13:27;20.86;59.96
63976;DHT22;50167;47.958;21.780;2023-04-25T09:15:56;21.03;59.38
63976;DHT22;50167;47.958;21.780;2023-04-25T09:18:34;20.48;59.04
63976;DHT22;50167;47.958;21.780;2023-04-25T09:21:11;19.27;61.35
63976;DHT22;50167;47.958;21.780;2023-04-25T09:23:44;18.36;64.03
63976;DHT22;50167;47.958;21.780;2023-04-25T09:26:18;18.45;65.67
63976;DHT22;50167;47.958;21.780;2023-04-25T09:28:45;19.14;65.29
63976;DHT22;50167;47.958;21.780;2023-04-25T09:31:22;19.57;63.25
63976;DHT22;50167;47.958;21.780;2023-04-25T09:33:59;19.46;59.96
63976;DHT22;50167;47.958;21.780;2023-04-25T09:36:27;19.31;59.00
63976;DHT22;50167;47.958;21.780;2023-04-25T09:38:54;18.37;60.29
63976;DHT22;50167;47.958;21.780;2023-04-25T09:41:24;17.21;63.35
63976;DHT22;50167;47.958;21.780;2023-04-25T09:43:51;16.98;65.02
63976;DHT22;50167;47.958;21.780;2023-04-25T09:46:17;17.22;63.56
63976;DHT22;50167;47.958;21.780;2023-04-25T09:48:49;17.15;63.00
63976;DHT22;50167;47.958;21.780;2023-04-25T09:51:16;17.05;63.05
63976;DHT22;50167;47.958;21.780;2023-04-25T09:53:46;17.02;62.63
63976;DHT22;50167;47.958;21.780;2023-04-25T09:56:15;17.25;62.07
63976;DHT22;50167;47.958;21.780;2023-04-25T09:58:42;17.70;63.16
63976;DHT22;50167;47.958;21.780;2023-04-25T10:01:10;18.11;62.08
63976;DHT22;50167;47.958;21.780;2023-04-25T10:03:38;18.29;60.38
63976;DHT22;50167;47.958;21.780;2023-04-25T10:06:14;17.93;59.18
63976;DHT22;50167;47.958;21.780;2023-04-25T10:08:41;16.64;62.75
63976;DHT22;50167;47.958;21.780;2023-04-25T10:11:09;16.51;63.79
63976;DHT22;50167;47.958;21.780;2023-04-25T10:13:36;16.94;62.33
63976;DHT22;50167;47.958;21.780;2023-04-25T10:16:04;16.46;63.34
63976;DHT22;50167;47.958;21.780;2023-04-25T10:18:32;16.33;63.99
63976;DHT22;50167;47.958;21.780;2023-04-25T10:21:02;16.60;62.78
63976;DHT22;50167;47.958;21.780;2023-04-25T10:23:30;16.51;63.12
63976;DHT22;50167;47.958;21.780;2023-04-25T10:25:58;16.46;62.97
63976;DHT22;50167;47.958;21.780;2023-04-25T10:28:24;16.61;62.31
63976;DHT22;50167;47.958;21.780;2023-04-25T10:31:03;16.88;62.46
63976;DHT22;50167;47.958;21.780;2023-04-25T10:33:37;16.90;61.50
63976;DHT22;50167;47.958;21.780;2023-04-25T10:36:17;16.63;62.09
63976;DHT22;50167;47.958;21.780;2023-04-25T10:38:44;16.63;62.20
63976;DHT22;50167;47.958;21.780;2023-04-25T10:41:12;16.63;62.25
63976;DHT22;50167;47.958;21.780;2023-04-25T10:43:42;16.44;62.30
63976;DHT22;50167;47.958;21.780;2023-04-25T10:46:24;16.19;62.87
63976;DHT22;50167;47.958;21.780;2023-04-25T10:48:54;15.88;63.49
63976;DHT22;50167;47.958;21.780;2023-04-25T10:51:27;16.07;62.70
63976;DHT22;50167;47.958;21.780;2023-04-25T10:54:05;15.82;63.24
63976;DHT22;50167;47.958;21.780;2023-04-25T10:56:37;16.05;62.29
63976;DHT22;50167;47.958;21.780;2023-04-25T10:59:15;16.53;61.65
63976;DHT22;50167;47.958;21.780;2023-04-25T11:01:51;16.11;62.03
63976;DHT22;50167;47.958;21.780;2023-04-25T11:04:30;16.16;62.10
63976;DHT22;50167;47.958;21.780;2023-04-25T11:07:34;16.29;61.64
63976;DHT22;50167;47.958;21.780;2023-04-25T11:10:03;16.07;62.23
63976;DHT22;50167;47.958;21.780;2023-04-25T11:12:31;16.28;62.00
63976;DHT22;50167;47.958;21.780;2023-04-25T11:15:08;16.29;62.12
63976;DHT22;50167;47.958;21.780;2023-04-25T11:17:34;16.15;62.83
63976;DHT22;50167;47.958;21.780;2023-04-25T11:20:01;16.05;63.20
63976;DHT22;50167;47.958;21.780;2023-04-25T11:22:31;16.28;62.62
63976;DHT22;50167;47.958;21.780;2023-04-25T11:24:57;16.25;62.72
63976;DHT22;50167;47.958;21.780;2023-04-25T11:27:23;16.26;62.64
63976;DHT22;50167;47.958;21.780;2023-04-25T11:29:50;16.02;63.45
63976;DHT22;50167;47.958;21.780;2023-04-25T11:32:17;15.88;63.50
63976;DHT22;50167;47.958;21.780;2023-04-25T11:34:44;16.02;63.26
63976;DHT22;50167;47.958;21.780;2023-04-25T11:37:11;15.99;63.47
63976;DHT22;50167;47.958;21.780;2023-04-25T11:39:38;16.26;62.78
63976;DHT22;50167;47.958;21.780;2023-04-25T11:42:13;15.89;63.07
63976;DHT22;50167;47.958;21.780;2023-04-25T11:44:46;15.99;62.92
63976;DHT22;50167;47.958;21.780;2023-04-25T11:47:12;16.02;63.01
63976;DHT22;50167;47.958;21.780;2023-04-25T11:49:38;16.13;62.43
63976;DHT22;50167;47.958;21.780;2023-04-25T11:52:06;16.08;62.93
63976;DHT22;50167;47.958;21.780;2023-04-25T11:54:37;16.33;61.95
63976;DHT22;50167;47.958;21.780;2023-04-25T11:57:04;16.95;61.62
63976;DHT22;50167;47.958;21.780;2023-04-25T11:59:33;16.80;60.13
63976;DHT22;50167;47.958;21.780;2023-04-25T12:01:59;16.94;59.68
63976;DHT22;50167;47.958;21.780;2023-04-25T12:04:30;16.09;61.39
63976;DHT22;50167;47.958;21.780;2023-04-25T12:06:58;15.44;64.52
63976;DHT22;50167;47.958;21.780;2023-04-25T12:09:38;16.29;62.92
63976;DHT22;50167;47.958;21.780;2023-04-25T12:12:05;16.63;61.52
63976;DHT22;50167;47.958;21.780;2023-04-25T12:14:35;16.57;61.00
63976;DHT22;50167;47.958;21.780;2023-04-25T12:24:21;16.72;61.17
63976;DHT22;50167;47.958;21.780;2023-04-25T12:27:03;16.64;61.05
63976;DHT22;50167;47.958;21.780;2023-04-25T12:29:32;16.92;60.24
63976;DHT22;50167;47.958;21.780;2023-04-25T12:31:59;17.26;60.17
63976;DHT22;50167;47.958;21.780;2023-04-25T12:34:28;17.40;59.35
63976;DHT22;50167;47.958;21.780;2023-04-25T12:36:54;16.16;62.83
63976;DHT22;50167;47.958;21.780;2023-04-25T12:39:24;15.86;63.90
63976;DHT22;50167;47.958;21.780;2023-04-25T12:41:52;16.40;62.61
63976;DHT22;50167;47.958;21.780;2023-04-25T12:44:21;16.53;62.09
63976;DHT22;50167;47.958;21.780;2023-04-25T12:46:48;16.56;61.70
63976;DHT22;50167;47.958;21.780;2023-04-25T12:49:14;16.71;61.09
63976;DHT22;50167;47.958;21.780;2023-04-25T12:51:41;16.56;60.64
63976;DHT22;50167;47.958;21.780;2023-04-25T12:54:07;16.43;60.99
63976;DHT22;50167;47.958;21.780;2023-04-25T12:56:34;16.64;60.80
63976;DHT22;50167;47.958;21.780;2023-04-25T12:59:01;16.35;60.76
63976;DHT22;50167;47.958;21.780;2023-04-25T13:01:31;16.49;60.78
63976;DHT22;50167;47.958;21.780;2023-04-25T13:03:57;16.60;60.66
63976;DHT22;50167;47.958;21.780;2023-04-25T13:06:24;16.50;60.53
63976;DHT22;50167;47.958;21.780;2023-04-25T13:08:50;16.71;60.06
63976;DHT22;50167;47.958;21.780;2023-04-25T13:11:16;16.77;59.25
63976;DHT22;50167;47.958;21.780;2023-04-25T13:13:43;15.89;60.79
63976;DHT22;50167;47.958;21.780;2023-04-25T13:16:10;15.10;64.21
63976;DHT22;50167;47.958;21.780;2023-04-25T13:18:39;15.65;61.76
63976;DHT22;50167;47.958;21.780;2023-04-25T13:21:05;15.71;60.76
63976;DHT22;50167;47.958;21.780;2023-04-25T13:23:32;15.89;60.18
63976;DHT22;50167;47.958;21.780;2023-04-25T13:25:59;16.09;59.41
63976;DHT22;50167;47.958;21.780;2023-04-25T13:28:27;15.39;61.14
63976;DHT22;50167;47.958;21.780;2023-04-25T13:30:54;14.37;64.67
63976;DHT22;50167;47.958;21.780;2023-04-25T13:33:21;14.89;63.75
63976;DHT22;50167;47.958;21.780;2023-04-25T13:35:54;15.58;61.46
63976;DHT22;50167;47.958;21.780;2023-04-25T13:38:30;15.68;60.73
63976;DHT22;50167;47.958;21.780;2023-04-25T13:40:56;15.84;59.79
63976;DHT22;50167;47.958;21.780;2023-04-25T13:43:22;15.70;59.84
63976;DHT22;50167;47.958;21.780;2023-04-25T13:45:52;14.51;63.26
63976;DHT22;50167;47.958;21.780;2023-04-25T13:48:19;14.48;64.08
63976;DHT22;50167;47.958;21.780;2023-04-25T13:55:05;15.10;61.15
63976;DHT22;50167;47.958;21.780;2023-04-25T13:57:34;15.13;61.14
63976;DHT22;50167;47.958;21.780;2023-04-25T14:00:00;15.26;61.05
63976;DHT22;50167;47.958;21.780;2023-04-25T14:02:28;15.44;60.21
63976;DHT22;50167;47.958;21.780;2023-04-25T14:04:54;14.72;60.66
63976;DHT22;50167;47.958;21.780;2023-04-25T14:07:20;14.10;63.83
63976;DHT22;50167;47.958;21.780;2023-04-25T14:09:50;14.53;62.81
63976;DHT22;50167;47.958;21.780;2023-04-25T14:12:16;14.94;61.48
63976;DHT22;50167;47.958;21.780;2023-04-25T14:14:42;15.15;60.39
63976;DHT22;50167;47.958;21.780;2023-04-25T14:17:08;15.33;59.99
63976;DHT22;50167;47.958;21.780;2023-04-25T14:19:35;15.50;59.67
63976;DHT22;50167;47.958;21.780;2023-04-25T14:22:03;15.32;59.94
63976;DHT22;50167;47.958;21.780;2023-04-25T14:24:29;14.50;62.48
63976;DHT22;50167;47.958;21.780;2023-04-25T14:26:56;14.56;63.18
63976;DHT22;50167;47.958;21.780;2023-04-25T14:29:22;14.70;61.96
63976;DHT22;50167;47.958;21.780;2023-04-25T14:31:48;14.65;61.68
63976;DHT22;50167;47.958;21.780;2023-04-25T14:34:14;14.48;61.99
63976;DHT22;50167;47.958;21.780;2023-04-25T14:36:40;14.74;61.18
63976;DHT22;50167;47.958;21.780;2023-04-25T14:39:07;15.30;59.84
63976;DHT22;50167;47.958;21.780;2023-04-25T14:41:34;15.33;59.68
63976;DHT22;50167;47.958;21.780;2023-04-25T14:44:00;14.36;62.40
63976;DHT22;50167;47.958;21.780;2023-04-25T14:46:27;14.12;63.52
63976;DHT22;50167;47.958;21.780;2023-04-25T14:48:53;14.31;62.27
63976;DHT22;50167;47.958;21.780;2023-04-25T14:51:21;14.31;61.92
63976;DHT22;50167;47.958;21.780;2023-04-25T14:53:49;14.54;61.59
63976;DHT22;50167;47.958;21.780;2023-04-25T14:56:16;14.67;61.32
63976;DHT22;50167;47.958;21.780;2023-04-25T14:58:42;14.81;61.03
63976;DHT22;50167;47.958;21.780;2023-04-25T15:01:08;14.85;61.03
63976;DHT22;50167;47.958;21.780;2023-04-25T15:03:35;14.94;60.96
63976;DHT22;50167;47.958;21.780;2023-04-25T15:06:01;14.99;60.67
63976;DHT22;50167;47.958;21.780;2023-04-25T15:08:27;15.03;60.81
63976;DHT22;50167;47.958;21.780;2023-04-25T15:10:54;14.86;61.09
63976;DHT22;50167;47.958;21.780;2023-04-25T15:13:20;14.98;61.06
63976;DHT22;50167;47.958;21.780;2023-04-25T15:15:46;14.91;61.21
63976;DHT22;50167;47.958;21.780;2023-04-25T15:18:14;14.95;61.24
63976;DHT22;50167;47.958;21.780;2023-04-25T15:20:40;15.00;61.03
63976;DHT22;50167;47.958;21.780;2023-04-25T15:23:07;15.25;60.52
63976;DHT22;50167;47.958;21.780;2023-04-25T15:25:33;15.22;60.56
63976;DHT22;50167;47.958;21.780;2023-04-25T15:27:59;15.39;60.20